Time;durP1;ratioP1;P1;durP2;ratioP2;P2;SDS_P1;SDS_P2;PMS_P1;PMS_P2;Temp;Humidity;BMP_temperature;BMP_pressure;BME280_temperature;BME280_humidity;BME280_pressure;Samples;Min_cycle;Max_cycle;Signal;HPM_P1;HPM_P2
2021/10/14 00:00:57;;;;;;;2.23;2.03;;;22.00;51.90;;;;;;5037448;28;20481;-83
2021/10/14 00:03:23;;;;;;;2.67;2.47;;;22.00;51.90;;;;;;5038527;28;20444;-83
2021/10/14 00:05:49;;;;;;;2.60;2.40;;;22.00;51.90;;;;;;5021430;28;20456;-83
2021/10/14 00:08:17;;;;;;;3.47;2.47;;;22.00;51.90;;;;;;5021022;28;20418;-83
2021/10/14 00:10:45;;;;;;;2.43;2.20;;;22.00;51.90;;;;;;5022090;28;20533;-83
2021/10/14 00:13:11;;;;;;;2.20;2.10;;;22.00;51.90;;;;;;5038439;28;20402;-83
2021/10/14 00:15:37;;;;;;;2.73;2.33;;;22.00;51.90;;;;;;5037032;28;20509;-83
2021/10/14 00:21:37;;;;;;;2.30;2.07;;;22.00;51.90;;;;;;5055193;28;20533;-83
2021/10/14 00:24:04;;;;;;;2.67;2.40;;;22.00;51.90;;;;;;5037322;28;20419;-83
2021/10/14 00:26:31;;;;;;;3.17;2.80;;;22.00;52.00;;;;;;5036592;28;20410;-83
2021/10/14 00:28:58;;;;;;;2.00;1.80;;;22.00;52.00;;;;;;5036402;28;20497;-83
2021/10/14 00:31:25;;;;;;;2.57;2.37;;;22.00;52.00;;;;;;5030749;28;20462;-83
2021/10/14 00:33:52;;;;;;;2.77;2.00;;;22.00;52.00;;;;;;5054125;28;20402;-83
2021/10/14 00:36:17;;;;;;;3.00;2.70;;;22.00;52.00;;;;;;5036618;28;20443;-83
2021/10/14 00:38:43;;;;;;;3.23;2.60;;;22.00;52.00;;;;;;5037127;28;20411;-83
2021/10/14 00:41:18;;;;;;;2.17;1.97;;;22.00;52.00;;;;;;5037054;28;20243;-83
2021/10/14 00:43:44;;;;;;;2.43;2.23;;;22.00;52.00;;;;;;5054934;28;20163;-83
2021/10/14 00:46:17;;;;;;;2.60;2.40;;;22.00;52.00;;;;;;5037664;28;20418;-83
2021/10/14 00:48:44;;;;;;;2.77;2.40;;;22.00;52.00;;;;;;5054809;28;20211;-83
2021/10/14 00:51:11;;;;;;;2.40;2.20;;;22.00;52.00;;;;;;5054403;28;20476;-83
2021/10/14 00:53:42;;;;;;;2.27;2.07;;;22.00;52.50;;;;;;5037871;28;20402;-83
2021/10/14 00:56:08;;;;;;;2.93;2.73;;;22.00;52.00;;;;;;5037052;28;20172;-83
2021/10/14 00:58:40;;;;;;;2.40;2.20;;;22.00;52.00;;;;;;5054431;28;20446;-83
2021/10/14 01:04:35;;;;;;;2.20;2.00;;;22.00;52.00;;;;;;5054301;28;20382;-83
2021/10/14 01:07:01;;;;;;;2.23;1.97;;;21.90;52.00;;;;;;5036368;28;20505;-83
2021/10/14 01:09:27;;;;;;;2.47;2.27;;;21.90;52.00;;;;;;5036703;28;20422;-83
2021/10/14 01:11:53;;;;;;;2.60;2.40;;;21.90;52.00;;;;;;5037723;28;20464;-83
2021/10/14 01:14:19;;;;;;;3.10;2.80;;;21.90;52.00;;;;;;5036699;28;20206;-83
2021/10/14 01:16:50;;;;;;;2.80;2.47;;;22.00;52.10;;;;;;5036529;28;20900;-83
2021/10/14 01:19:20;;;;;;;3.00;2.70;;;21.90;52.00;;;;;;5036504;28;20176;-83
2021/10/14 01:21:48;;;;;;;2.27;2.10;;;21.90;52.00;;;;;;5036534;28;20449;-83
2021/10/14 01:24:16;;;;;;;2.90;2.10;;;21.90;52.00;;;;;;5036022;28;20457;-83
2021/10/14 01:26:44;;;;;;;2.30;1.93;;;21.90;52.00;;;;;;5036422;28;20461;-83
2021/10/14 01:29:13;;;;;;;2.60;2.40;;;21.90;52.00;;;;;;5053005;28;20437;-82
2021/10/14 01:31:39;;;;;;;3.17;2.87;;;21.90;52.00;;;;;;5030633;28;20484;-82
2021/10/14 01:34:05;;;;;;;3.10;2.20;;;21.90;52.00;;;;;;5031037;28;20410;-82
2021/10/14 01:36:31;;;;;;;3.00;2.57;;;21.90;52.00;;;;;;5022163;28;20785;-82
2021/10/14 01:38:57;;;;;;;2.70;2.50;;;22.00;52.00;;;;;;5048451;28;20415;-82
2021/10/14 01:41:24;;;;;;;2.33;2.10;;;22.00;52.00;;;;;;5031474;28;20191;-82
2021/10/14 01:43:52;;;;;;;2.30;2.10;;;21.90;52.00;;;;;;5047944;28;20179;-82
2021/10/14 01:46:18;;;;;;;3.17;2.43;;;21.90;52.00;;;;;;5031202;28;20934;-82
2021/10/14 01:48:44;;;;;;;2.63;2.40;;;21.90;52.00;;;;;;5029823;28;20419;-82
2021/10/14 01:51:14;;;;;;;2.23;2.03;;;21.90;52.00;;;;;;5048208;28;20223;-82
2021/10/14 01:53:42;;;;;;;3.03;2.33;;;21.90;52.00;;;;;;5030713;28;20512;-82
2021/10/14 01:56:08;;;;;;;2.50;2.30;;;21.90;52.00;;;;;;5029937;28;20421;-82
2021/10/14 01:58:34;;;;;;;2.20;2.00;;;21.90;52.00;;;;;;5064402;28;20494;-82
2021/10/14 02:01:00;;;;;;;2.50;2.00;;;21.90;52.00;;;;;;5043316;28;20681;-82
2021/10/14 02:03:25;;;;;;;3.13;2.40;;;21.90;52.00;;;;;;5010277;28;20180;-82
2021/10/14 02:05:51;;;;;;;2.30;2.10;;;21.90;52.00;;;;;;5027604;28;20223;-82
2021/10/14 02:08:18;;;;;;;2.23;1.90;;;21.90;52.00;;;;;;5034335;28;20198;-83
2021/10/14 02:10:46;;;;;;;2.37;2.17;;;21.90;52.00;;;;;;5046701;28;20469;-82
2021/10/14 02:13:12;;;;;;;2.47;2.20;;;21.90;52.00;;;;;;5029808;28;20450;-82
2021/10/14 02:15:37;;;;;;;4.03;2.13;;;21.90;52.00;;;;;;5047453;28;20407;-82
2021/10/14 02:18:03;;;;;;;3.47;3.03;;;21.90;52.00;;;;;;5024596;28;20187;-82
2021/10/14 02:20:29;;;;;;;2.53;2.33;;;21.90;52.00;;;;;;5025660;28;20292;-82
2021/10/14 02:22:58;;;;;;;2.10;1.90;;;21.90;52.00;;;;;;5029182;28;20561;-83
2021/10/14 02:25:24;;;;;;;2.80;2.60;;;21.90;52.00;;;;;;5029458;28;20418;-82
2021/10/14 02:27:49;;;;;;;2.20;1.60;;;21.90;52.00;;;;;;5027107;28;20490;-82
2021/10/14 02:30:15;;;;;;;2.30;2.10;;;21.90;52.00;;;;;;5040583;28;20172;-82
2021/10/14 02:32:41;;;;;;;2.30;2.10;;;21.90;52.00;;;;;;5046620;28;20199;-82
2021/10/14 02:35:09;;;;;;;2.60;2.40;;;21.90;52.00;;;;;;5026496;28;20249;-82
2021/10/14 02:37:41;;;;;;;2.17;1.73;;;21.90;52.60;;;;;;5009578;28;20416;-82
2021/10/14 02:40:08;;;;;;;2.40;2.20;;;21.90;52.00;;;;;;5009985;28;20403;-82
2021/10/14 02:42:34;;;;;;;2.30;2.03;;;21.90;52.00;;;;;;5027248;28;20415;-82
2021/10/14 02:45:00;;;;;;;2.40;2.20;;;21.90;52.00;;;;;;5046614;28;20776;-82
2021/10/14 02:47:26;;;;;;;2.20;2.00;;;21.90;52.00;;;;;;5028844;28;20417;-82
2021/10/14 02:49:51;;;;;;;2.30;2.10;;;21.90;52.00;;;;;;5037672;28;20258;-82
2021/10/14 02:52:20;;;;;;;2.20;1.93;;;21.90;52.00;;;;;;5046513;28;20273;-82
2021/10/14 02:54:48;;;;;;;2.10;1.90;;;21.90;52.00;;;;;;5027042;28;20634;-82
2021/10/14 02:57:14;;;;;;;2.47;2.23;;;21.90;52.00;;;;;;5009109;28;20419;-82
2021/10/14 02:59:42;;;;;;;1.97;1.83;;;21.90;52.00;;;;;;5026377;28;20437;-82
2021/10/14 03:02:08;;;;;;;2.00;1.77;;;21.90;52.00;;;;;;5042052;28;20669;-82
2021/10/14 03:04:33;;;;;;;2.40;2.20;;;21.90;52.10;;;;;;5026040;28;20430;-82
2021/10/14 03:06:59;;;;;;;2.57;2.37;;;21.90;52.00;;;;;;5054641;28;20183;-82
2021/10/14 03:09:25;;;;;;;2.13;1.93;;;21.90;52.10;;;;;;5029383;28;20183;-82
2021/10/14 03:11:51;;;;;;;2.17;1.97;;;21.80;52.00;;;;;;5028825;28;20199;-82
2021/10/14 03:14:16;;;;;;;2.90;1.97;;;21.80;52.00;;;;;;5062186;28;20265;-82
2021/10/14 03:16:42;;;;;;;3.20;2.00;;;21.90;52.10;;;;;;5026047;28;20431;-82
2021/10/14 03:19:08;;;;;;;2.93;2.00;;;21.80;52.00;;;;;;5010066;28;20176;-82
2021/10/14 03:21:34;;;;;;;2.33;2.03;;;21.90;52.10;;;;;;5027287;28;20153;-82
2021/10/14 03:23:59;;;;;;;2.17;2.03;;;21.90;52.10;;;;;;5027259;28;20172;-82
2021/10/14 03:26:25;;;;;;;2.60;2.40;;;21.90;52.60;;;;;;5026021;28;20176;-82
2021/10/14 03:28:53;;;;;;;1.97;1.80;;;21.80;52.00;;;;;;5026411;28;20172;-82
2021/10/14 03:31:19;;;;;;;2.40;2.13;;;21.90;52.10;;;;;;5009844;28;20274;-82
2021/10/14 03:33:47;;;;;;;2.13;1.93;;;21.80;52.00;;;;;;5009296;28;20487;-82
2021/10/14 03:36:13;;;;;;;2.60;2.13;;;21.90;52.10;;;;;;5009051;28;20310;-82
2021/10/14 03:38:39;;;;;;;2.30;2.10;;;21.80;52.00;;;;;;5009327;28;20408;-82
2021/10/14 03:41:05;;;;;;;1.97;1.80;;;21.90;52.70;;;;;;5009591;28;20180;-82
2021/10/14 03:43:31;;;;;;;2.80;2.13;;;21.80;52.00;;;;;;5008679;28;20181;-82
2021/10/14 03:45:57;;;;;;;2.40;2.20;;;21.80;52.00;;;;;;5026946;28;20411;-82
2021/10/14 03:48:22;;;;;;;3.83;2.27;;;21.80;52.00;;;;;;5009488;28;20172;-82
2021/10/14 03:50:48;;;;;;;2.50;2.30;;;21.90;52.10;;;;;;5009849;28;20509;-82
2021/10/14 03:53:14;;;;;;;2.77;2.20;;;21.80;52.10;;;;;;5009781;28;20176;-82
2021/10/14 03:55:40;;;;;;;2.47;1.80;;;21.80;52.10;;;;;;5008878;28;20227;-82
2021/10/14 03:58:05;;;;;;;3.13;2.30;;;21.80;52.10;;;;;;5009885;28;20184;-82
2021/10/14 04:00:32;;;;;;;2.60;2.10;;;21.80;52.10;;;;;;5009398;28;20200;-82
2021/10/14 04:02:59;;;;;;;2.80;2.40;;;21.80;52.10;;;;;;5030761;28;20175;-82
2021/10/14 04:05:24;;;;;;;2.60;2.20;;;21.80;52.10;;;;;;5028744;28;20416;-82
2021/10/14 04:07:50;;;;;;;2.60;2.40;;;21.80;52.10;;;;;;5031273;28;20415;-82
2021/10/14 04:10:19;;;;;;;2.57;1.70;;;21.80;52.20;;;;;;5013468;28;20177;-82
2021/10/14 04:12:45;;;;;;;2.30;2.10;;;21.80;52.20;;;;;;5013169;28;20215;-82
2021/10/14 04:15:10;;;;;;;2.03;1.77;;;21.80;52.20;;;;;;5030045;28;20403;-83
2021/10/14 04:17:36;;;;;;;2.60;2.13;;;21.80;52.20;;;;;;5029570;28;20191;-82
2021/10/14 04:20:03;;;;;;;1.93;1.80;;;21.70;52.10;;;;;;5011754;28;20172;-82
2021/10/14 04:22:28;;;;;;;2.10;1.63;;;21.80;52.20;;;;;;5029390;28;20176;-82
2021/10/14 04:24:54;;;;;;;2.37;2.17;;;21.70;52.10;;;;;;5029537;28;20427;-82
2021/10/14 04:27:23;;;;;;;2.50;2.30;;;21.70;52.10;;;;;;5028170;28;20178;-82
2021/10/14 04:29:49;;;;;;;2.47;2.27;;;21.70;52.10;;;;;;5012334;28;20191;-82
2021/10/14 04:32:15;;;;;;;2.70;2.40;;;21.70;52.10;;;;;;5030462;28;20455;-82
2021/10/14 04:34:41;;;;;;;2.30;2.00;;;21.80;52.10;;;;;;5013505;28;20176;-82
2021/10/14 04:37:07;;;;;;;2.30;2.10;;;21.80;52.10;;;;;;5029825;28;20987;-82
2021/10/14 04:39:34;;;;;;;2.70;2.50;;;21.80;52.00;;;;;;5011555;28;20267;-82
2021/10/14 04:42:01;;;;;;;2.27;2.07;;;21.80;52.00;;;;;;5011035;28;20495;-82
2021/10/14 04:44:26;;;;;;;3.40;2.17;;;21.80;52.00;;;;;;5012079;28;20428;-82
2021/10/14 04:46:52;;;;;;;1.90;1.80;;;21.80;52.00;;;;;;5029329;28;20411;-82
2021/10/14 04:49:18;;;;;;;2.63;2.03;;;21.80;52.00;;;;;;5011453;28;20192;-82
2021/10/14 04:51:46;;;;;;;2.60;2.30;;;21.80;52.00;;;;;;5011634;28;20563;-82
2021/10/14 04:54:12;;;;;;;2.10;1.90;;;21.80;52.00;;;;;;5012169;28;20176;-82
2021/10/14 04:56:40;;;;;;;2.20;2.00;;;21.80;51.90;;;;;;5011973;28;20419;-82
2021/10/14 04:59:09;;;;;;;2.97;2.30;;;21.80;51.90;;;;;;5030269;28;20180;-83
2021/10/14 05:01:35;;;;;;;2.10;1.90;;;21.90;52.00;;;;;;5014495;28;20785;-82
2021/10/14 05:04:02;;;;;;;2.27;2.00;;;21.80;51.90;;;;;;5030344;28;20438;-83
2021/10/14 05:06:28;;;;;;;3.10;1.87;;;21.80;51.90;;;;;;5015065;28;20188;-82
2021/10/14 05:08:56;;;;;;;2.43;1.90;;;21.90;52.00;;;;;;5034859;28;20426;-84
2021/10/14 05:11:59;;;;;;;2.40;2.10;;;21.90;51.90;;;;;;5017724;28;20212;-82
2021/10/14 05:14:24;;;;;;;1.57;1.47;;;21.90;51.90;;;;;;5039386;28;20423;-82
2021/10/14 05:16:52;;;;;;;1.80;1.70;;;21.90;52.00;;;;;;5023560;28;20506;-82
2021/10/14 05:19:18;;;;;;;2.10;1.90;;;21.90;51.90;;;;;;5039573;28;20446;-82
2021/10/14 05:21:53;;;;;;;3.07;2.23;;;21.90;52.40;;;;;;5024514;28;20403;-82
2021/10/14 05:24:22;;;;;;;3.10;2.80;;;21.90;51.90;;;;;;5022909;28;20435;-82
2021/10/14 05:26:52;;;;;;;2.60;1.90;;;21.90;51.90;;;;;;5039346;28;20499;-82
2021/10/14 05:29:19;;;;;;;2.07;1.90;;;21.90;51.90;;;;;;5040239;28;20427;-82
2021/10/14 05:31:56;;;;;;;2.30;1.90;;;21.90;51.80;;;;;;5006942;28;20497;-82
2021/10/14 05:34:23;;;;;;;2.10;1.80;;;21.90;51.80;;;;;;5018572;28;20414;-82
2021/10/14 05:36:51;;;;;;;2.37;2.17;;;21.90;51.80;;;;;;5006844;28;20450;-82
2021/10/14 05:39:17;;;;;;;2.20;2.00;;;21.90;51.80;;;;;;5039916;28;20492;-82
2021/10/14 05:41:43;;;;;;;4.77;2.67;;;21.90;51.80;;;;;;5039872;28;20453;-82
2021/10/14 05:44:10;;;;;;;2.47;2.27;;;22.00;51.90;;;;;;5023212;28;20422;-82
2021/10/14 05:46:36;;;;;;;3.30;2.53;;;22.00;51.80;;;;;;5023095;28;20435;-81
2021/10/14 05:49:03;;;;;;;3.37;2.40;;;22.00;51.80;;;;;;5022980;28;20416;-81
2021/10/14 05:51:29;;;;;;;2.97;2.33;;;22.00;51.80;;;;;;5022865;28;20458;-81
2021/10/14 05:53:54;;;;;;;3.00;2.10;;;21.90;51.70;;;;;;5006680;28;20466;-81
2021/10/14 05:56:24;;;;;;;2.10;1.80;;;22.00;51.80;;;;;;5039495;28;20403;-81
2021/10/14 05:58:53;;;;;;;3.60;2.00;;;21.90;51.70;;;;;;5042324;28;20418;-81
2021/10/14 06:01:20;;;;;;;2.30;2.10;;;21.90;51.70;;;;;;5058899;28;20443;-81
2021/10/14 06:03:47;;;;;;;2.87;1.90;;;22.00;51.80;;;;;;5042877;28;20433;-81
2021/10/14 06:06:15;;;;;;;3.03;2.13;;;21.90;51.80;;;;;;5059431;28;20399;-81
2021/10/14 06:08:42;;;;;;;1.80;1.70;;;22.00;51.80;;;;;;5042159;28;20478;-82
2021/10/14 06:11:08;;;;;;;2.40;2.20;;;22.00;51.80;;;;;;5073329;28;20470;-82
2021/10/14 06:13:38;;;;;;;2.63;2.23;;;21.90;51.80;;;;;;5048042;28;20493;-82
2021/10/14 06:16:05;;;;;;;2.60;2.17;;;22.00;51.80;;;;;;5039072;28;20188;-82
2021/10/14 06:18:31;;;;;;;3.03;2.20;;;21.90;51.80;;;;;;5038957;28;20434;-82
2021/10/14 06:20:57;;;;;;;3.67;2.77;;;22.00;51.80;;;;;;5038519;28;20423;-82
2021/10/14 06:23:24;;;;;;;2.20;1.97;;;22.00;51.80;;;;;;5041401;28;20448;-82
2021/10/14 06:25:49;;;;;;;3.73;2.47;;;22.00;51.80;;;;;;5036231;28;20439;-82
2021/10/14 06:28:18;;;;;;;2.20;2.00;;;22.00;51.80;;;;;;5069261;28;20433;-82
2021/10/14 06:30:44;;;;;;;1.80;1.60;;;22.00;51.80;;;;;;5019639;28;20240;-82
2021/10/14 06:33:16;;;;;;;2.00;1.80;;;22.00;51.80;;;;;;5074140;28;20418;-82
2021/10/14 06:35:51;;;;;;;2.60;1.80;;;22.00;51.80;;;;;;5058455;28;20401;-82
2021/10/14 06:38:17;;;;;;;2.23;1.60;;;22.00;51.80;;;;;;5054552;28;20441;-82
2021/10/14 06:40:46;;;;;;;2.50;2.30;;;22.00;51.80;;;;;;5058289;28;20409;-82
2021/10/14 06:43:14;;;;;;;1.63;1.53;;;22.00;51.80;;;;;;5057880;28;20191;-82
2021/10/14 06:45:41;;;;;;;2.10;1.70;;;22.00;51.80;;;;;;5041651;28;20486;-82
2021/10/14 06:48:07;;;;;;;1.90;1.80;;;22.00;51.80;;;;;;5058008;28;20415;-82
2021/10/14 06:50:34;;;;;;;2.47;2.27;;;22.00;51.80;;;;;;5047681;28;20412;-82
2021/10/14 06:53:00;;;;;;;2.53;2.33;;;22.00;51.80;;;;;;5054188;28;20399;-82
2021/10/14 06:55:26;;;;;;;2.80;2.23;;;22.00;51.80;;;;;;5037282;28;20447;-81
2021/10/14 06:57:52;;;;;;;2.20;1.67;;;22.00;51.80;;;;;;5066701;28;20418;-81
2021/10/14 07:00:24;;;;;;;2.67;2.17;;;22.00;51.80;;;;;;5049540;28;20425;-81
2021/10/14 07:02:53;;;;;;;2.30;2.10;;;22.00;51.80;;;;;;5005486;28;20435;-81
2021/10/14 07:05:19;;;;;;;1.90;1.67;;;22.00;51.80;;;;;;5004926;28;20395;-81
2021/10/14 07:07:46;;;;;;;2.47;1.80;;;22.00;51.80;;;;;;5040785;28;20422;-81
2021/10/14 07:10:16;;;;;;;2.00;1.70;;;22.00;51.80;;;;;;5057021;28;20391;-81
2021/10/14 07:12:42;;;;;;;2.53;1.80;;;22.00;51.80;;;;;;5037691;28;20453;-81
2021/10/14 07:15:10;;;;;;;2.03;1.70;;;22.00;51.80;;;;;;5041128;28;20422;-81
2021/10/14 07:17:37;;;;;;;1.93;1.63;;;22.00;51.80;;;;;;5040454;28;20465;-82
2021/10/14 07:20:05;;;;;;;2.03;1.83;;;22.00;51.80;;;;;;5040310;28;20434;-82
2021/10/14 07:22:32;;;;;;;3.60;1.60;;;22.00;51.80;;;;;;5030602;28;20430;-82
2021/10/14 07:24:59;;;;;;;1.97;1.77;;;22.00;51.80;;;;;;5057835;28;20422;-82
2021/10/14 07:27:28;;;;;;;2.80;1.80;;;22.00;51.80;;;;;;5040169;28;20434;-82
2021/10/14 07:29:53;;;;;;;2.07;1.87;;;22.00;51.80;;;;;;5054849;28;20407;-82
2021/10/14 07:32:19;;;;;;;1.50;1.27;;;22.00;51.80;;;;;;5036086;28;20462;-82
2021/10/14 07:34:45;;;;;;;2.00;1.80;;;22.00;51.80;;;;;;5032332;28;20184;-82
2021/10/14 07:37:12;;;;;;;2.00;1.63;;;22.00;51.80;;;;;;5059188;28;20168;-82
2021/10/14 07:39:39;;;;;;;1.90;1.80;;;22.00;51.80;;;;;;5060840;28;20164;-82
2021/10/14 07:42:05;;;;;;;1.73;1.63;;;22.00;51.80;;;;;;5050602;28;20403;-82
2021/10/14 07:44:30;;;;;;;2.03;1.83;;;22.00;51.80;;;;;;5059637;28;20433;-82
2021/10/14 07:46:56;;;;;;;1.80;1.60;;;22.00;51.80;;;;;;5045449;28;20454;-82
2021/10/14 07:49:22;;;;;;;2.63;1.80;;;22.00;51.80;;;;;;5044275;28;20230;-82
2021/10/14 07:51:48;;;;;;;2.60;1.70;;;22.00;51.80;;;;;;5043916;28;20489;-82
2021/10/14 07:54:17;;;;;;;2.00;1.60;;;22.10;51.80;;;;;;5061318;28;20406;-82
2021/10/14 07:56:51;;;;;;;1.80;1.60;;;22.00;51.80;;;;;;5043935;28;20462;-82
2021/10/14 07:59:17;;;;;;;1.57;1.40;;;22.00;51.80;;;;;;5028806;28;20407;-82
2021/10/14 08:01:44;;;;;;;2.40;1.90;;;22.10;51.90;;;;;;5060512;28;20422;-82
2021/10/14 08:04:10;;;;;;;1.93;1.73;;;22.00;51.80;;;;;;5043505;28;20434;-82
2021/10/14 08:06:36;;;;;;;1.83;1.67;;;22.10;51.90;;;;;;5043885;28;20419;-82
2021/10/14 08:09:03;;;;;;;1.87;1.50;;;22.00;51.80;;;;;;5043481;28;20199;-82
2021/10/14 08:11:29;;;;;;;2.47;1.80;;;22.00;51.80;;;;;;5043508;28;20497;-82
2021/10/14 08:13:55;;;;;;;1.80;1.50;;;22.00;51.80;;;;;;5060901;28;20493;-82
2021/10/14 08:16:21;;;;;;;2.03;1.80;;;22.00;51.80;;;;;;5027200;28;20410;-82
2021/10/14 08:18:48;;;;;;;1.80;1.60;;;22.10;51.80;;;;;;5043541;28;20497;-82
2021/10/14 08:21:16;;;;;;;2.80;1.63;;;22.10;51.80;;;;;;5060363;28;20174;-82
2021/10/14 08:23:42;;;;;;;2.07;1.60;;;22.10;51.80;;;;;;5060378;28;20434;-82
2021/10/14 08:26:10;;;;;;;1.70;1.40;;;22.10;51.90;;;;;;5043357;28;20449;-82
2021/10/14 08:28:39;;;;;;;1.70;1.43;;;22.00;51.80;;;;;;5042848;28;20418;-82
2021/10/14 08:31:11;;;;;;;1.73;1.30;;;22.10;51.90;;;;;;5043463;28;20467;-82
2021/10/14 08:33:39;;;;;;;2.53;2.00;;;22.00;51.80;;;;;;5042826;28;20406;-82
2021/10/14 08:36:05;;;;;;;1.53;1.30;;;22.00;51.80;;;;;;5043101;28;20423;-82
2021/10/14 08:38:31;;;;;;;1.50;1.40;;;22.00;51.80;;;;;;5060308;28;20437;-82
2021/10/14 08:40:57;;;;;;;1.60;1.50;;;22.00;51.80;;;;;;5042885;28;20472;-82
2021/10/14 08:43:31;;;;;;;2.30;1.40;;;22.00;52.40;;;;;;5042590;28;20238;-82
2021/10/14 08:45:59;;;;;;;2.53;1.80;;;22.00;52.40;;;;;;5026815;28;20426;-82
2021/10/14 08:48:25;;;;;;;2.00;1.60;;;22.00;51.80;;;;;;5025942;28;20505;-82
2021/10/14 08:50:51;;;;;;;1.70;1.50;;;22.00;51.80;;;;;;5059874;28;20819;-82
2021/10/14 08:53:17;;;;;;;1.50;1.33;;;22.00;51.80;;;;;;5043181;28;20430;-82
2021/10/14 08:55:43;;;;;;;2.50;1.43;;;22.00;51.80;;;;;;5043364;28;20438;-82
2021/10/14 08:58:11;;;;;;;2.10;1.60;;;22.00;51.80;;;;;;5042763;28;20439;-82
2021/10/14 09:00:42;;;;;;;1.97;1.67;;;22.10;51.90;;;;;;5043094;28;20422;-82
2021/10/14 09:03:30;;;;;;;1.60;1.50;;;22.00;51.80;;;;;;5035589;28;20431;-82
2021/10/14 09:06:01;;;;;;;2.37;1.80;;;22.10;51.90;;;;;;5054124;28;20407;-82
2021/10/14 09:08:46;;;;;;;1.30;1.20;;;22.00;51.80;;;;;;5032860;28;20414;-82
2021/10/14 09:11:26;;;;;;;1.53;1.43;;;22.10;51.90;;;;;;5023135;28;20482;-82
2021/10/14 09:13:58;;;;;;;1.60;1.50;;;22.10;51.90;;;;;;5020316;28;20411;-82
2021/10/14 09:16:42;;;;;;;3.47;1.60;;;22.00;51.80;;;;;;5042623;28;20446;-82
2021/10/14 09:19:16;;;;;;;2.00;1.70;;;22.10;51.90;;;;;;5042281;28;20406;-82
2021/10/14 09:22:06;;;;;;;1.80;1.70;;;22.10;51.90;;;;;;5042498;28;20436;-82
2021/10/14 09:24:38;;;;;;;2.10;1.67;;;22.00;51.80;;;;;;5028791;28;20434;-82
2021/10/14 09:27:19;;;;;;;1.63;1.50;;;22.00;51.80;;;;;;5059281;28;20402;-82
2021/10/14 09:29:48;;;;;;;1.40;1.30;;;22.10;51.90;;;;;;5059530;28;20397;-82
2021/10/14 09:32:15;;;;;;;1.47;1.37;;;22.00;51.80;;;;;;5075147;28;20453;-82
2021/10/14 09:35:07;;;;;;;1.70;1.60;;;22.10;51.90;;;;;;5031023;28;20455;-82
2021/10/14 09:37:39;;;;;;;1.97;1.60;;;22.10;51.80;;;;;;5038434;28;20434;-82
2021/10/14 09:40:11;;;;;;;1.63;1.53;;;22.10;51.90;;;;;;5022267;28;20473;-82
2021/10/14 09:42:55;;;;;;;1.60;1.40;;;22.10;51.90;;;;;;5039626;28;20419;-82
2021/10/14 09:45:35;;;;;;;1.97;1.57;;;22.10;51.90;;;;;;5040544;28;20449;-82
2021/10/14 09:48:08;;;;;;;1.97;1.77;;;22.10;51.90;;;;;;5052416;28;20402;-82
2021/10/14 09:50:54;;;;;;;1.73;1.43;;;22.10;51.90;;;;;;5040472;28;20445;-82
2021/10/14 09:53:24;;;;;;;1.73;1.30;;;22.10;51.90;;;;;;5040314;28;20426;-82
2021/10/14 09:55:56;;;;;;;1.97;1.77;;;22.10;51.90;;;;;;5033553;28;20398;-82
2021/10/14 09:58:23;;;;;;;1.77;1.50;;;22.10;51.90;;;;;;5056184;28;20937;-82
2021/10/14 10:00:57;;;;;;;1.60;1.43;;;22.20;51.90;;;;;;5049767;28;20401;-82
2021/10/14 10:03:51;;;;;;;1.83;1.50;;;22.10;51.80;;;;;;5040467;28;20419;-82
2021/10/14 10:06:26;;;;;;;1.60;1.50;;;22.20;51.80;;;;;;5053308;28;20428;-82
2021/10/14 10:08:53;;;;;;;1.90;1.63;;;22.20;51.80;;;;;;5050579;28;20393;-82
2021/10/14 10:11:21;;;;;;;1.67;1.50;;;22.20;51.80;;;;;;5072613;28;20458;-81
2021/10/14 10:14:10;;;;;;;1.80;1.40;;;22.20;51.80;;;;;;5056883;28;20436;-81
2021/10/14 10:16:54;;;;;;;1.60;1.50;;;22.20;51.70;;;;;;5033651;28;20426;-82
2021/10/14 10:19:39;;;;;;;1.83;1.60;;;22.20;51.80;;;;;;5038064;28;20415;-82
2021/10/14 10:22:21;;;;;;;1.50;1.40;;;22.20;51.80;;;;;;5059013;28;20421;-82
2021/10/14 10:24:47;;;;;;;1.60;1.50;;;22.20;51.80;;;;;;5071881;28;20422;-82
2021/10/14 10:27:33;;;;;;;1.93;1.47;;;22.20;51.80;;;;;;5036629;28;20410;-82
2021/10/14 10:29:59;;;;;;;2.20;1.40;;;22.20;51.70;;;;;;5018574;28;20440;-82
2021/10/14 10:32:28;;;;;;;1.40;1.20;;;22.20;51.80;;;;;;5043904;28;20462;-81
2021/10/14 10:35:11;;;;;;;1.80;1.30;;;22.20;51.70;;;;;;5054661;28;20399;-80
2021/10/14 10:37:48;;;;;;;2.10;1.53;;;22.30;51.80;;;;;;5041291;28;20426;-80
2021/10/14 10:40:28;;;;;;;2.00;1.80;;;22.20;51.70;;;;;;5041818;28;20425;-81
2021/10/14 10:43:09;;;;;;;1.50;1.33;;;22.20;51.70;;;;;;5039246;28;20430;-81
2021/10/14 10:45:44;;;;;;;1.60;1.50;;;22.30;51.80;;;;;;5056710;28;20410;-83
2021/10/14 10:48:13;;;;;;;1.70;1.43;;;22.20;51.70;;;;;;5044157;28;20420;-81
2021/10/14 10:51:02;;;;;;;1.40;1.30;;;22.20;51.70;;;;;;5072067;28;20401;-81
2021/10/14 10:53:59;;;;;;;2.07;1.20;;;22.30;51.80;;;;;;5049424;28;20441;-81
2021/10/14 10:56:39;;;;;;;1.53;1.23;;;22.30;51.80;;;;;;4977202;28;20448;-81
2021/10/14 10:59:15;;;;;;;1.67;1.50;;;22.30;51.80;;;;;;4945617;28;20426;-81
2021/10/14 11:01:44;;;;;;;1.50;1.30;;;22.20;51.70;;;;;;4961726;28;20448;-80
2021/10/14 11:04:13;;;;;;;1.90;1.53;;;22.30;51.80;;;;;;4945384;28;20422;-80
2021/10/14 11:06:40;;;;;;;1.80;1.50;;;22.30;51.80;;;;;;4976840;29;20441;-82
2021/10/14 11:09:15;;;;;;;1.50;1.30;;;22.30;51.80;;;;;;4961339;28;20453;-81
2021/10/14 11:11:43;;;;;;;1.80;1.40;;;22.30;51.80;;;;;;4962614;28;20461;-82
2021/10/14 11:14:12;;;;;;;2.20;1.47;;;22.30;51.80;;;;;;4961635;28;20531;-82
2021/10/14 11:16:44;;;;;;;1.80;1.33;;;22.30;51.80;;;;;;4980183;28;20418;-82
2021/10/14 11:19:17;;;;;;;1.97;1.30;;;22.30;51.80;;;;;;4965159;28;20458;-81
2021/10/14 11:21:46;;;;;;;1.87;1.43;;;22.30;51.80;;;;;;4965203;28;21077;-81
2021/10/14 11:24:12;;;;;;;1.50;1.40;;;22.30;51.80;;;;;;4949544;29;20429;-81
2021/10/14 11:26:52;;;;;;;3.13;1.43;;;22.30;51.80;;;;;;5029883;28;20419;-81
2021/10/14 11:29:26;;;;;;;2.17;1.70;;;22.30;51.70;;;;;;5043844;28;20446;-81
2021/10/14 11:32:03;;;;;;;1.60;1.50;;;22.30;51.80;;;;;;5059600;28;20468;-81
2021/10/14 11:34:36;;;;;;;2.63;1.70;;;22.30;51.70;;;;;;5045944;28;20418;-81
2021/10/14 11:37:09;;;;;;;1.60;1.50;;;22.30;51.70;;;;;;5046894;28;20446;-81
2021/10/14 11:39:45;;;;;;;3.67;1.73;;;22.30;51.70;;;;;;5046512;28;20488;-81
2021/10/14 11:42:23;;;;;;;6.63;2.27;;;22.30;51.70;;;;;;5056869;28;20410;-81
2021/10/14 11:44:59;;;;;;;2.40;1.50;;;22.30;51.70;;;;;;5043263;28;20529;-81
2021/10/14 11:47:27;;;;;;;1.90;1.57;;;22.30;51.70;;;;;;5060876;28;20516;-81
2021/10/14 11:50:13;;;;;;;1.93;1.53;;;22.30;51.80;;;;;;5059066;28;20458;-81
2021/10/14 11:52:39;;;;;;;1.60;1.40;;;22.30;51.70;;;;;;5056807;28;20509;-81
2021/10/14 11:55:10;;;;;;;2.00;1.60;;;22.30;51.80;;;;;;5030758;28;20429;-81
2021/10/14 11:57:52;;;;;;;2.33;1.77;;;22.30;51.80;;;;;;5056459;28;20426;-81
2021/10/14 12:00:19;;;;;;;1.70;1.57;;;22.30;51.80;;;;;;5039928;28;20497;-82
2021/10/14 12:02:46;;;;;;;2.30;2.00;;;22.30;51.80;;;;;;5025571;28;20421;-82
2021/10/14 12:05:13;;;;;;;1.97;1.40;;;22.30;51.80;;;;;;5059315;28;20429;-82
2021/10/14 12:07:46;;;;;;;2.50;1.73;;;22.30;51.80;;;;;;5042054;28;20421;-81
2021/10/14 12:10:36;;;;;;;2.10;1.80;;;22.30;51.80;;;;;;5061991;28;20409;-81
2021/10/14 12:13:05;;;;;;;1.60;1.40;;;22.30;51.80;;;;;;5042880;28;20528;-81
2021/10/14 12:15:33;;;;;;;1.93;1.37;;;22.30;51.80;;;;;;5059939;28;20418;-81
2021/10/14 12:18:01;;;;;;;1.70;1.53;;;22.30;51.80;;;;;;5049765;28;20423;-81
2021/10/14 12:20:29;;;;;;;1.93;1.57;;;22.30;51.80;;;;;;5073781;28;20449;-81
2021/10/14 12:22:58;;;;;;;1.67;1.57;;;22.20;51.80;;;;;;5057578;28;20413;-81
2021/10/14 12:25:41;;;;;;;1.67;1.50;;;22.30;51.80;;;;;;5053038;28;20426;-81
2021/10/14 12:28:24;;;;;;;1.83;1.67;;;22.30;51.80;;;;;;5048239;28;20414;-81
2021/10/14 12:30:53;;;;;;;2.67;1.60;;;22.30;51.80;;;;;;5040210;28;20453;-81
2021/10/14 12:33:19;;;;;;;1.97;1.50;;;22.30;52.40;;;;;;5060208;28;20430;-81
2021/10/14 12:36:02;;;;;;;1.80;1.50;;;22.30;51.90;;;;;;5042351;28;20411;-81
2021/10/14 12:38:39;;;;;;;2.07;1.50;;;22.30;51.90;;;;;;5044489;28;20434;-81
2021/10/14 12:41:14;;;;;;;1.83;1.57;;;22.30;51.80;;;;;;5042392;28;20433;-82
2021/10/14 12:44:01;;;;;;;1.70;1.50;;;22.30;51.90;;;;;;5043691;28;20449;-82
2021/10/14 12:51:48;;;;;;;1.50;1.40;;;22.30;51.90;;;;;;5052797;28;20473;-83
2021/10/14 12:54:18;;;;;;;1.70;1.50;;;22.20;51.80;;;;;;5071693;28;20418;-83
2021/10/14 12:56:46;;;;;;;4.03;1.57;;;22.20;51.80;;;;;;5067689;28;20399;-83
2021/10/14 12:59:13;;;;;;;2.17;1.70;;;22.20;51.80;;;;;;5066229;28;20419;-83
2021/10/14 13:01:41;;;;;;;2.13;1.50;;;22.20;51.80;;;;;;5066515;28;20457;-83
2021/10/14 13:04:08;;;;;;;2.47;1.57;;;22.30;51.90;;;;;;5050870;28;20927;-83
2021/10/14 13:06:35;;;;;;;2.33;1.30;;;22.30;51.90;;;;;;5050294;28;20415;-83
2021/10/14 13:09:03;;;;;;;1.40;1.20;;;22.30;51.90;;;;;;5065096;28;20438;-82
2021/10/14 13:11:36;;;;;;;1.77;1.53;;;22.30;51.90;;;;;;5066764;28;20479;-82